createdAt,value
2022-10-14T00:01:20.539Z,21.02
2022-10-14T00:04:06.360Z,21.95
2022-10-14T00:06:51.619Z,22.73
2022-10-14T00:09:36.857Z,22.50
2022-10-14T00:12:23.726Z,22.58
2022-10-14T00:15:09.272Z,22.08
2022-10-14T00:17:54.282Z,22.48
2022-10-14T00:20:39.739Z,21.77
2022-10-14T00:23:25.260Z,21.52
2022-10-14T00:26:20.568Z,23.15
2022-10-14T00:29:11.151Z,22.98
2022-10-14T00:31:56.327Z,22.15
2022-10-14T00:34:41.795Z,23.20
2022-10-14T00:37:28.275Z,21.45
2022-10-14T00:40:13.549Z,21.95
2022-10-14T00:42:58.869Z,22.13
2022-10-14T00:45:44.300Z,22.80
2022-10-14T00:48:29.675Z,22.77
2022-10-14T00:51:18.399Z,21.98
2022-10-14T00:54:05.281Z,22.42
2022-10-14T00:56:51.509Z,22.48
2022-10-14T00:59:38.402Z,21.80
2022-10-14T01:02:24.112Z,21.95
2022-10-14T01:05:12.195Z,21.10
2022-10-14T01:08:03.610Z,20.02
2022-10-14T01:11:05.652Z,22.55
2022-10-14T01:14:21.424Z,20.70
2022-10-14T01:17:12.905Z,19.92
2022-10-14T01:20:22.862Z,20.98
2022-10-14T01:23:30.072Z,19.90
2022-10-14T01:26:36.162Z,21.73
2022-10-14T01:29:46.146Z,20.55
2022-10-14T01:32:48.003Z,20.58
2022-10-14T01:35:43.406Z,19.58
2022-10-14T01:38:44.870Z,19.55
2022-10-14T01:41:36.715Z,20.30
2022-10-14T01:44:25.092Z,20.58
2022-10-14T01:47:13.473Z,20.73
2022-10-14T01:50:09.658Z,20.15
2022-10-14T01:53:01.610Z,19.60
2022-10-14T01:55:49.198Z,21.33
2022-10-14T01:58:37.672Z,21.02
2022-10-14T02:01:24.837Z,20.23
2022-10-14T02:04:19.397Z,21.05
2022-10-14T02:07:23.373Z,20.90
2022-10-14T02:10:22.519Z,20.27
2022-10-14T02:13:24.133Z,20.37
2022-10-14T02:16:23.312Z,20.58
2022-10-14T02:19:14.440Z,20.87
2022-10-14T02:22:31.323Z,19.98
2022-10-14T02:25:37.025Z,19.92
2022-10-14T02:28:27.119Z,21.00
2022-10-14T02:31:18.158Z,20.95
2022-10-14T02:34:10.453Z,20.40
2022-10-14T02:36:56.462Z,20.77
2022-10-14T02:39:49.267Z,21.48
2022-10-14T02:42:34.890Z,20.60
2022-10-14T02:45:26.122Z,20.30
2022-10-14T02:48:12.727Z,20.08
2022-10-14T02:50:57.919Z,19.08
2022-10-14T02:53:43.222Z,19.17
2022-10-14T02:56:29.107Z,19.17
2022-10-14T02:59:14.254Z,20.02
2022-10-14T03:02:00.339Z,20.30
2022-10-14T03:04:46.778Z,19.48
2022-10-14T03:07:32.347Z,18.77
2022-10-14T03:10:21.619Z,19.13
2022-10-14T03:13:07.315Z,18.98
2022-10-14T03:15:59.083Z,18.27
2022-10-14T03:18:45.103Z,17.15
2022-10-14T03:21:42.880Z,18.30
2022-10-14T03:24:34.414Z,16.98
2022-10-14T03:27:40.986Z,18.17
2022-10-14T03:30:30.111Z,17.92
2022-10-14T03:33:24.506Z,18.65
2022-10-14T03:36:17.608Z,19.33
2022-10-14T03:39:05.801Z,18.15
2022-10-14T03:42:10.976Z,19.05
2022-10-14T03:45:01.700Z,18.60
2022-10-14T03:47:49.237Z,19.13
2022-10-14T03:50:34.834Z,19.10
2022-10-14T03:53:20.258Z,18.08
2022-10-14T03:56:06.586Z,19.33
2022-10-14T03:58:53.952Z,18.83
2022-10-14T04:01:40.636Z,19.95
2022-10-14T04:04:36.530Z,20.92
2022-10-14T04:07:23.093Z,19.50
2022-10-14T04:10:14.226Z,20.10
2022-10-14T04:13:04.971Z,19.10
2022-10-14T04:15:55.339Z,20.15
2022-10-14T04:18:53.961Z,20.55
2022-10-14T04:21:41.026Z,18.83
2022-10-14T04:24:27.762Z,18.40
2022-10-14T04:27:17.916Z,20.13
2022-10-14T04:30:08.102Z,19.00
2022-10-14T04:33:04.856Z,18.90
2022-10-14T04:35:51.588Z,18.58
2022-10-14T04:38:45.029Z,18.77
2022-10-14T04:41:30.795Z,18.75
2022-10-14T04:44:19.442Z,19.75
2022-10-14T04:47:08.824Z,18.58
2022-10-14T04:49:55.957Z,19.00
2022-10-14T04:52:41.742Z,20.08
2022-10-14T04:55:30.900Z,18.95
2022-10-14T04:58:16.969Z,18.83
2022-10-14T05:01:05.074Z,19.17
2022-10-14T05:03:55.359Z,18.92
2022-10-14T05:06:40.867Z,18.40
2022-10-14T05:09:28.608Z,18.60
2022-10-14T05:12:14.635Z,19.63
2022-10-14T05:15:07.254Z,18.63
2022-10-14T05:17:59.449Z,18.45
2022-10-14T05:23:54.115Z,18.33
2022-10-14T05:26:39.294Z,18.60
2022-10-14T05:29:28.434Z,18.15
2022-10-14T05:32:15.771Z,17.50
2022-10-14T05:35:04.966Z,19.13
2022-10-14T05:38:00.654Z,19.10
2022-10-14T05:40:54.502Z,19.13
2022-10-14T05:43:40.302Z,19.63
2022-10-14T05:46:25.297Z,20.58
2022-10-14T05:49:14.252Z,20.02
2022-10-14T05:52:00.467Z,18.63
2022-10-14T05:54:45.841Z,17.95
2022-10-14T06:00:25.632Z,18.25
2022-10-14T06:03:18.979Z,18.10
2022-10-14T06:06:04.483Z,20.00
2022-10-14T06:08:49.731Z,20.00
2022-10-14T06:11:35.268Z,18.63
2022-10-14T06:14:20.586Z,19.08
2022-10-14T06:17:06.880Z,20.65
2022-10-14T06:19:52.253Z,20.65
2022-10-14T06:22:37.712Z,19.02
2022-10-14T06:25:22.906Z,19.40
2022-10-14T06:28:08.757Z,17.73
2022-10-14T06:30:55.022Z,19.67
2022-10-14T06:33:40.210Z,19.08
2022-10-14T06:36:25.382Z,18.50
2022-10-14T06:39:11.007Z,19.42
2022-10-14T06:41:56.184Z,18.38
2022-10-14T06:44:41.925Z,18.58
2022-10-14T06:47:27.871Z,17.83
2022-10-14T06:50:13.170Z,18.27
2022-10-14T06:52:58.590Z,19.15
2022-10-14T06:55:44.374Z,17.08
2022-10-14T06:58:30.898Z,18.58
2022-10-14T07:01:16.168Z,20.60
2022-10-14T07:04:01.786Z,20.02
2022-10-14T07:06:49.955Z,17.92
2022-10-14T07:09:35.115Z,17.13
2022-10-14T07:12:20.664Z,18.15
2022-10-14T07:15:06.708Z,17.15
2022-10-14T07:17:51.917Z,18.25
2022-10-14T07:20:37.266Z,19.08
2022-10-14T07:23:22.722Z,19.00
2022-10-14T07:26:08.083Z,17.98
2022-10-14T07:28:53.448Z,18.00
2022-10-14T07:31:38.573Z,18.00
2022-10-14T07:34:23.617Z,19.38
2022-10-14T07:37:09.080Z,17.52
2022-10-14T07:39:54.586Z,20.17
2022-10-14T07:42:40.238Z,19.58
2022-10-14T07:45:25.754Z,18.67
2022-10-14T07:48:10.991Z,19.60
2022-10-14T07:50:56.555Z,18.83
2022-10-14T07:53:41.725Z,18.33
2022-10-14T07:56:27.634Z,21.30
2022-10-14T07:59:13.125Z,19.52
2022-10-14T08:01:59.140Z,18.33
2022-10-14T08:04:44.922Z,18.90
2022-10-14T08:07:30.990Z,17.55
2022-10-14T08:10:16.222Z,18.85
2022-10-14T08:13:01.422Z,19.17
2022-10-14T08:15:46.617Z,20.05
2022-10-14T08:18:31.997Z,19.10
2022-10-14T08:21:19.697Z,19.05
2022-10-14T08:24:17.340Z,21.02
2022-10-14T08:27:02.896Z,19.92
2022-10-14T08:29:48.214Z,21.83
2022-10-14T08:32:33.353Z,19.73
2022-10-14T08:35:19.237Z,20.23
2022-10-14T08:38:04.466Z,19.42
2022-10-14T08:41:02.907Z,19.23
2022-10-14T08:44:13.309Z,18.65
2022-10-14T08:47:04.523Z,19.33
2022-10-14T08:49:58.509Z,17.77
2022-10-14T08:52:52.791Z,18.02
2022-10-14T08:55:46.574Z,18.73
2022-10-14T08:58:40.194Z,16.73
2022-10-14T09:01:31.823Z,17.00
2022-10-14T09:04:17.632Z,16.77
2022-10-14T09:07:04.036Z,17.33
2022-10-14T09:10:07.987Z,15.98
2022-10-14T09:12:56.694Z,17.00
2022-10-14T09:15:45.949Z,15.30
2022-10-14T09:18:53.864Z,16.92
2022-10-14T09:21:52.654Z,17.70
2022-10-14T09:24:38.766Z,16.70
2022-10-14T09:27:24.622Z,16.60
2022-10-14T09:30:15.869Z,16.38
2022-10-14T09:33:17.527Z,16.70
2022-10-14T09:36:09.243Z,17.00
2022-10-14T09:38:59.156Z,17.77
2022-10-14T09:41:52.427Z,17.85
2022-10-14T09:44:37.672Z,17.10
2022-10-14T09:47:29.687Z,17.17
2022-10-14T09:50:34.858Z,17.88
2022-10-14T09:53:38.608Z,18.13
2022-10-14T09:56:42.414Z,18.55
2022-10-14T09:59:28.448Z,19.35
2022-10-14T10:02:23.215Z,16.13
2022-10-14T10:05:25.342Z,18.27
2022-10-14T10:08:14.013Z,19.55
2022-10-14T10:11:10.310Z,17.30
2022-10-14T10:13:56.523Z,17.00
2022-10-14T10:16:41.557Z,19.20
2022-10-14T10:19:31.973Z,17.77
2022-10-14T10:22:31.522Z,17.98
2022-10-14T10:25:21.224Z,16.73
2022-10-14T10:31:19.476Z,18.50
2022-10-14T10:34:21.876Z,17.63
2022-10-14T10:37:46.471Z,18.90
2022-10-14T10:40:44.092Z,18.50
2022-10-14T10:43:49.215Z,17.27
2022-10-14T10:46:51.746Z,17.10
2022-10-14T10:58:43.172Z,15.85
2022-10-14T11:02:10.400Z,16.42
2022-10-14T11:05:25.014Z,15.65
2022-10-14T11:12:22.887Z,15.55
2022-10-14T11:15:27.547Z,15.52
2022-10-14T11:18:47.493Z,16.15
2022-10-14T11:22:04.617Z,17.40
2022-10-14T11:25:00.138Z,15.10
2022-10-14T11:27:45.447Z,15.70
2022-10-14T11:30:45.064Z,15.88
2022-10-14T11:33:50.495Z,16.75
2022-10-14T11:37:03.303Z,15.13
2022-10-14T11:39:59.257Z,15.23
2022-10-14T11:43:13.576Z,15.95
2022-10-14T11:46:09.913Z,15.10
2022-10-14T11:49:03.828Z,15.00
2022-10-14T11:51:58.187Z,12.82
2022-10-14T11:55:13.748Z,15.38
2022-10-14T11:58:10.242Z,13.20
2022-10-14T12:01:18.040Z,13.32
2022-10-14T12:04:10.678Z,12.70
2022-10-14T12:07:18.905Z,12.80
2022-10-14T12:10:19.662Z,12.45
2022-10-14T12:13:13.658Z,11.93
2022-10-14T12:16:01.107Z,12.82
2022-10-14T12:18:53.678Z,12.60
2022-10-14T12:22:15.954Z,13.38
2022-10-14T12:25:17.275Z,12.18
2022-10-14T12:28:03.623Z,12.98
2022-10-14T12:30:48.898Z,11.82
2022-10-14T12:34:15.326Z,11.70
2022-10-14T12:37:27.160Z,11.93
2022-10-14T12:40:25.308Z,10.27
2022-10-14T12:43:31.837Z,11.52
2022-10-14T12:46:17.317Z,10.18
2022-10-14T12:49:02.900Z,10.57
2022-10-14T12:51:56.474Z,11.43
2022-10-14T12:54:48.105Z,10.48
2022-10-14T12:57:38.706Z,10.73
2022-10-14T13:00:26.848Z,10.35
2022-10-14T13:03:20.546Z,10.93
2022-10-14T13:06:42.213Z,9.98
2022-10-14T13:09:34.801Z,10.68
2022-10-14T13:12:22.686Z,9.30
2022-10-14T13:15:45.482Z,9.15
2022-10-14T13:18:31.553Z,8.85
2022-10-14T13:21:34.818Z,10.23
2022-10-14T13:24:27.597Z,9.93
2022-10-14T13:27:37.024Z,8.70
2022-10-14T13:30:46.188Z,9.13
2022-10-14T13:33:40.450Z,9.85
2022-10-14T13:36:51.939Z,8.57
2022-10-14T13:39:38.093Z,7.85
2022-10-14T13:42:31.944Z,7.93
2022-10-14T13:45:20.643Z,7.25
2022-10-14T13:48:05.981Z,8.00
2022-10-14T13:50:58.695Z,8.98
2022-10-14T13:54:00.499Z,8.40
2022-10-14T13:57:38.291Z,8.98
2022-10-14T14:00:43.894Z,7.82
2022-10-14T14:03:38.663Z,7.63
2022-10-14T14:06:27.774Z,7.35
2022-10-14T14:09:27.342Z,8.82
2022-10-14T14:12:13.473Z,7.70
2022-10-14T14:15:00.419Z,8.25
2022-10-14T14:17:45.559Z,8.20
2022-10-14T14:20:33.890Z,8.70
2022-10-14T14:23:19.247Z,7.78
2022-10-14T14:26:18.987Z,9.18
2022-10-14T14:29:06.709Z,8.32
2022-10-14T14:32:08.602Z,8.23
2022-10-14T14:34:54.947Z,7.70
2022-10-14T14:37:55.122Z,8.35
2022-10-14T14:40:41.046Z,8.30
2022-10-14T14:43:31.308Z,8.00
2022-10-14T14:46:28.190Z,8.60
2022-10-14T14:49:25.776Z,7.38
2022-10-14T14:52:13.887Z,7.00
2022-10-14T14:54:59.362Z,7.10
2022-10-14T14:57:44.719Z,7.32
2022-10-14T15:00:32.880Z,7.80
2022-10-14T15:03:18.507Z,6.72
2022-10-14T15:06:05.585Z,6.85
2022-10-14T15:08:53.337Z,7.68
2022-10-14T15:12:00.635Z,7.63
2022-10-14T15:14:59.408Z,7.22
2022-10-14T15:17:45.970Z,8.23
2022-10-14T15:20:38.464Z,7.15
2022-10-14T15:24:00.154Z,8.82
2022-10-14T15:26:46.223Z,7.75
2022-10-14T15:29:31.414Z,7.80
2022-10-14T15:32:17.611Z,8.23
2022-10-14T15:35:03.085Z,7.95
2022-10-14T15:37:49.307Z,7.65
2022-10-14T15:40:34.965Z,8.45
2022-10-14T15:43:23.006Z,9.02
2022-10-14T15:46:31.738Z,7.25
2022-10-14T15:49:32.240Z,8.48
2022-10-14T15:52:19.458Z,7.80
2022-10-14T15:55:21.892Z,8.57
2022-10-14T15:58:07.520Z,8.25
2022-10-14T16:00:56.464Z,8.00
2022-10-14T16:03:41.969Z,8.55
2022-10-14T16:06:30.917Z,8.63
2022-10-14T16:09:16.201Z,7.97
2022-10-14T16:12:02.785Z,9.15
2022-10-14T16:14:47.947Z,8.32
2022-10-14T16:17:33.360Z,8.85
2022-10-14T16:20:18.944Z,8.85
2022-10-14T16:23:05.324Z,8.02
2022-10-14T16:25:51.377Z,8.98
2022-10-14T16:28:36.606Z,7.95
2022-10-14T16:31:21.954Z,10.15
2022-10-14T16:34:11.671Z,10.18
2022-10-14T16:36:57.227Z,9.23
2022-10-14T16:39:42.424Z,10.13
2022-10-14T16:42:28.604Z,12.13
2022-10-14T16:45:14.113Z,10.32
2022-10-14T16:47:59.684Z,10.15
2022-10-14T16:50:52.935Z,11.40
2022-10-14T16:53:41.400Z,10.57
2022-10-14T16:56:45.529Z,11.20
2022-10-14T16:59:31.246Z,11.20
2022-10-14T17:02:17.837Z,11.63
2022-10-14T17:05:03.266Z,13.32
2022-10-14T17:07:48.498Z,14.27
2022-10-14T17:10:33.807Z,14.45
2022-10-14T17:13:19.099Z,13.77
2022-10-14T17:16:06.214Z,12.57
2022-10-14T17:18:52.009Z,12.70
2022-10-14T17:21:38.146Z,12.82
2022-10-14T17:24:26.002Z,13.05
2022-10-14T17:27:11.733Z,12.88
2022-10-14T17:29:57.154Z,12.48
2022-10-14T17:32:42.391Z,11.95
2022-10-14T17:35:27.879Z,10.77
2022-10-14T17:38:14.459Z,11.05
2022-10-14T17:41:08.495Z,11.18
2022-10-14T17:43:55.851Z,10.65
2022-10-14T17:46:41.115Z,10.85
2022-10-14T17:49:26.587Z,9.30
2022-10-14T17:52:12.045Z,10.70
2022-10-14T17:54:58.994Z,10.57
2022-10-14T17:57:47.682Z,11.40
2022-10-14T18:00:32.915Z,11.32
2022-10-14T18:03:18.544Z,10.02
2022-10-14T18:06:26.902Z,9.43
2022-10-14T18:09:12.457Z,9.43
2022-10-14T18:12:13.442Z,10.00
2022-10-14T18:14:58.916Z,9.65
2022-10-14T18:17:44.615Z,8.73
2022-10-14T18:20:29.527Z,9.93
2022-10-14T18:23:14.857Z,9.20
2022-10-14T18:26:06.296Z,9.40
2022-10-14T18:28:55.730Z,9.55
2022-10-14T18:32:08.511Z,8.68
2022-10-14T18:34:53.817Z,9.43
2022-10-14T18:37:39.139Z,8.38
2022-10-14T18:40:24.654Z,8.77
2022-10-14T18:43:09.761Z,8.65
2022-10-14T18:46:06.017Z,7.82
2022-10-14T18:48:53.306Z,8.68
2022-10-14T18:51:41.012Z,9.00
2022-10-14T18:54:26.084Z,8.77
2022-10-14T18:57:14.852Z,8.90
2022-10-14T19:00:00.139Z,9.15
2022-10-14T19:02:45.696Z,10.05
2022-10-14T19:05:35.809Z,9.40
2022-10-14T19:08:23.554Z,9.32
2022-10-14T19:11:19.725Z,9.50
2022-10-14T19:14:05.707Z,9.23
2022-10-14T19:16:51.624Z,8.70
2022-10-14T19:19:36.951Z,9.40
2022-10-14T19:22:25.001Z,8.85
2022-10-14T19:25:10.651Z,8.27
2022-10-14T19:27:55.870Z,8.10
2022-10-14T19:30:41.216Z,8.73
2022-10-14T19:33:26.365Z,10.10
2022-10-14T19:36:14.045Z,9.38
2022-10-14T19:39:00.340Z,7.85
2022-10-14T19:41:47.312Z,7.82
2022-10-14T19:47:23.231Z,8.55
2022-10-14T19:50:09.217Z,10.05
2022-10-14T19:52:54.662Z,9.55
2022-10-14T19:55:40.810Z,9.05
2022-10-14T19:58:26.387Z,9.13
2022-10-14T20:01:17.006Z,9.90
2022-10-14T20:04:02.972Z,9.20
2022-10-14T20:06:48.323Z,8.68
2022-10-14T20:09:34.581Z,8.25
2022-10-14T20:12:20.795Z,8.43
2022-10-14T20:15:07.580Z,8.18
